sensor_id;sensor_type;location;lat;lon;timestamp;P1;durP1;ratioP1;P2;durP2;ratioP2
26335;SDS011;14047;50.936;4.654;2023-07-02T00:01:36;32.20;;;14.88;;
26335;SDS011;14047;50.936;4.654;2023-07-02T00:04:02;34.85;;;14.88;;
26335;SDS011;14047;50.936;4.654;2023-07-02T00:06:27;30.40;;;14.07;;
26335;SDS011;14047;50.936;4.654;2023-07-02T00:08:53;30.70;;;14.63;;
26335;SDS011;14047;50.936;4.654;2023-07-02T00:11:19;36.35;;;15.15;;
26335;SDS011;14047;50.936;4.654;2023-07-02T00:13:45;34.80;;;14.82;;
26335;SDS011;14047;50.936;4.654;2023-07-02T00:16:11;31.90;;;14.68;;
26335;SDS011;14047;50.936;4.654;2023-07-02T00:18:37;31.70;;;14.68;;
26335;SDS011;14047;50.936;4.654;2023-07-02T00:21:05;32.95;;;14.20;;
26335;SDS011;14047;50.936;4.654;2023-07-02T00:23:31;32.90;;;15.55;;
26335;SDS011;14047;50.936;4.654;2023-07-02T00:25:57;34.97;;;15.38;;
26335;SDS011;14047;50.936;4.654;2023-07-02T00:28:23;31.67;;;15.95;;
26335;SDS011;14047;50.936;4.654;2023-07-02T00:30:49;36.78;;;15.43;;
26335;SDS011;14047;50.936;4.654;2023-07-02T00:33:15;33.10;;;15.18;;
26335;SDS011;14047;50.936;4.654;2023-07-02T00:35:41;38.15;;;16.40;;
26335;SDS011;14047;50.936;4.654;2023-07-02T00:38:07;42.92;;;17.08;;
26335;SDS011;14047;50.936;4.654;2023-07-02T00:40:35;35.55;;;15.68;;
26335;SDS011;14047;50.936;4.654;2023-07-02T00:43:02;35.92;;;16.92;;
26335;SDS011;14047;50.936;4.654;2023-07-02T00:45:28;36.65;;;15.43;;
26335;SDS011;14047;50.936;4.654;2023-07-02T00:47:54;37.90;;;17.58;;
26335;SDS011;14047;50.936;4.654;2023-07-02T00:50:21;38.30;;;17.08;;
26335;SDS011;14047;50.936;4.654;2023-07-02T00:52:48;37.30;;;17.92;;
26335;SDS011;14047;50.936;4.654;2023-07-02T00:55:14;36.08;;;16.50;;
26335;SDS011;14047;50.936;4.654;2023-07-02T00:57:41;36.05;;;16.90;;
26335;SDS011;14047;50.936;4.654;2023-07-02T01:00:12;39.65;;;16.67;;
26335;SDS011;14047;50.936;4.654;2023-07-02T01:02:38;41.05;;;18.15;;
26335;SDS011;14047;50.936;4.654;2023-07-02T01:05:15;36.17;;;16.63;;
26335;SDS011;14047;50.936;4.654;2023-07-02T01:07:41;44.28;;;17.63;;
26335;SDS011;14047;50.936;4.654;2023-07-02T01:10:08;39.25;;;17.60;;
26335;SDS011;14047;50.936;4.654;2023-07-02T01:12:34;38.92;;;17.63;;
26335;SDS011;14047;50.936;4.654;2023-07-02T01:15:02;37.40;;;17.08;;
26335;SDS011;14047;50.936;4.654;2023-07-02T01:17:30;40.67;;;19.27;;
26335;SDS011;14047;50.936;4.654;2023-07-02T01:20:05;39.83;;;18.65;;
26335;SDS011;14047;50.936;4.654;2023-07-02T01:22:36;39.45;;;17.45;;
26335;SDS011;14047;50.936;4.654;2023-07-02T01:25:02;42.05;;;18.98;;
26335;SDS011;14047;50.936;4.654;2023-07-02T01:27:29;38.65;;;18.80;;
26335;SDS011;14047;50.936;4.654;2023-07-02T01:29:56;45.22;;;17.42;;
26335;SDS011;14047;50.936;4.654;2023-07-02T01:32:22;41.47;;;19.00;;
26335;SDS011;14047;50.936;4.654;2023-07-02T01:34:49;43.90;;;19.30;;
26335;SDS011;14047;50.936;4.654;2023-07-02T01:37:18;45.22;;;19.10;;
26335;SDS011;14047;50.936;4.654;2023-07-02T01:39:45;44.53;;;19.90;;
26335;SDS011;14047;50.936;4.654;2023-07-02T01:42:15;36.60;;;18.58;;
26335;SDS011;14047;50.936;4.654;2023-07-02T01:44:51;46.92;;;20.42;;
26335;SDS011;14047;50.936;4.654;2023-07-02T01:47:17;51.88;;;20.02;;
26335;SDS011;14047;50.936;4.654;2023-07-02T01:49:45;42.90;;;19.52;;
26335;SDS011;14047;50.936;4.654;2023-07-02T01:52:11;51.75;;;20.23;;
26335;SDS011;14047;50.936;4.654;2023-07-02T01:54:37;47.75;;;19.83;;
26335;SDS011;14047;50.936;4.654;2023-07-02T01:57:03;48.58;;;20.40;;
26335;SDS011;14047;50.936;4.654;2023-07-02T01:59:29;47.13;;;20.02;;
26335;SDS011;14047;50.936;4.654;2023-07-02T02:01:55;50.20;;;19.58;;
26335;SDS011;14047;50.936;4.654;2023-07-02T02:04:21;45.97;;;19.27;;
26335;SDS011;14047;50.936;4.654;2023-07-02T02:06:47;41.83;;;19.88;;
26335;SDS011;14047;50.936;4.654;2023-07-02T02:09:13;51.70;;;21.35;;
26335;SDS011;14047;50.936;4.654;2023-07-02T02:11:44;46.92;;;19.23;;
26335;SDS011;14047;50.936;4.654;2023-07-02T02:14:11;54.35;;;20.58;;
26335;SDS011;14047;50.936;4.654;2023-07-02T02:16:37;48.88;;;20.60;;
26335;SDS011;14047;50.936;4.654;2023-07-02T02:19:03;46.72;;;20.20;;
26335;SDS011;14047;50.936;4.654;2023-07-02T02:21:30;43.78;;;20.10;;
26335;SDS011;14047;50.936;4.654;2023-07-02T02:23:56;47.30;;;20.35;;
26335;SDS011;14047;50.936;4.654;2023-07-02T02:26:22;50.60;;;19.88;;
26335;SDS011;14047;50.936;4.654;2023-07-02T02:28:50;50.25;;;20.83;;
26335;SDS011;14047;50.936;4.654;2023-07-02T02:31:16;49.08;;;19.63;;
26335;SDS011;14047;50.936;4.654;2023-07-02T02:33:43;49.05;;;21.73;;
26335;SDS011;14047;50.936;4.654;2023-07-02T02:36:09;47.22;;;21.02;;
26335;SDS011;14047;50.936;4.654;2023-07-02T02:38:35;47.10;;;21.30;;
26335;SDS011;14047;50.936;4.654;2023-07-02T02:41:03;52.58;;;20.90;;
26335;SDS011;14047;50.936;4.654;2023-07-02T02:43:34;42.63;;;19.25;;
26335;SDS011;14047;50.936;4.654;2023-07-02T02:46:01;49.15;;;21.73;;
26335;SDS011;14047;50.936;4.654;2023-07-02T02:48:27;50.25;;;21.05;;
26335;SDS011;14047;50.936;4.654;2023-07-02T02:50:53;49.63;;;19.58;;
26335;SDS011;14047;50.936;4.654;2023-07-02T02:53:19;49.63;;;20.80;;
26335;SDS011;14047;50.936;4.654;2023-07-02T02:55:45;47.30;;;21.30;;
26335;SDS011;14047;50.936;4.654;2023-07-02T02:58:11;50.78;;;21.00;;
26335;SDS011;14047;50.936;4.654;2023-07-02T03:00:37;54.55;;;22.98;;
26335;SDS011;14047;50.936;4.654;2023-07-02T03:03:07;49.45;;;21.63;;
26335;SDS011;14047;50.936;4.654;2023-07-02T03:05:33;51.58;;;21.95;;
26335;SDS011;14047;50.936;4.654;2023-07-02T03:07:59;50.17;;;21.27;;
26335;SDS011;14047;50.936;4.654;2023-07-02T03:10:25;54.50;;;23.58;;
26335;SDS011;14047;50.936;4.654;2023-07-02T03:12:51;51.08;;;21.48;;
26335;SDS011;14047;50.936;4.654;2023-07-02T03:15:17;55.65;;;22.58;;
26335;SDS011;14047;50.936;4.654;2023-07-02T03:17:43;50.88;;;22.50;;
26335;SDS011;14047;50.936;4.654;2023-07-02T03:20:09;50.22;;;22.17;;
26335;SDS011;14047;50.936;4.654;2023-07-02T03:22:35;53.22;;;22.98;;
26335;SDS011;14047;50.936;4.654;2023-07-02T03:25:01;50.47;;;22.63;;
26335;SDS011;14047;50.936;4.654;2023-07-02T03:27:27;58.97;;;25.02;;
26335;SDS011;14047;50.936;4.654;2023-07-02T03:29:53;47.72;;;23.17;;
26335;SDS011;14047;50.936;4.654;2023-07-02T03:32:19;58.10;;;23.48;;
26335;SDS011;14047;50.936;4.654;2023-07-02T03:34:45;47.72;;;22.95;;
26335;SDS011;14047;50.936;4.654;2023-07-02T03:37:11;54.22;;;23.02;;
26335;SDS011;14047;50.936;4.654;2023-07-02T03:39:36;54.85;;;25.35;;
26335;SDS011;14047;50.936;4.654;2023-07-02T03:42:04;60.70;;;24.50;;
26335;SDS011;14047;50.936;4.654;2023-07-02T03:44:31;57.72;;;23.38;;
26335;SDS011;14047;50.936;4.654;2023-07-02T03:46:56;55.05;;;23.95;;
26335;SDS011;14047;50.936;4.654;2023-07-02T03:49:22;61.00;;;25.25;;
26335;SDS011;14047;50.936;4.654;2023-07-02T03:51:48;52.83;;;24.02;;
26335;SDS011;14047;50.936;4.654;2023-07-02T03:54:14;55.58;;;23.83;;
26335;SDS011;14047;50.936;4.654;2023-07-02T03:56:40;68.38;;;25.17;;
26335;SDS011;14047;50.936;4.654;2023-07-02T03:59:06;54.65;;;23.58;;
26335;SDS011;14047;50.936;4.654;2023-07-02T04:01:32;63.50;;;25.20;;
26335;SDS011;14047;50.936;4.654;2023-07-02T04:03:58;57.15;;;24.95;;
26335;SDS011;14047;50.936;4.654;2023-07-02T04:06:24;56.58;;;24.67;;
26335;SDS011;14047;50.936;4.654;2023-07-02T04:08:50;56.72;;;25.30;;
26335;SDS011;14047;50.936;4.654;2023-07-02T04:11:16;56.53;;;25.95;;
26335;SDS011;14047;50.936;4.654;2023-07-02T04:13:42;59.63;;;24.20;;
26335;SDS011;14047;50.936;4.654;2023-07-02T04:16:08;70.28;;;24.45;;
26335;SDS011;14047;50.936;4.654;2023-07-02T04:18:33;60.03;;;23.77;;
26335;SDS011;14047;50.936;4.654;2023-07-02T04:21:00;62.45;;;26.58;;
26335;SDS011;14047;50.936;4.654;2023-07-02T04:23:27;60.30;;;24.17;;
26335;SDS011;14047;50.936;4.654;2023-07-02T04:25:53;62.30;;;25.63;;
26335;SDS011;14047;50.936;4.654;2023-07-02T04:28:18;65.30;;;26.40;;
26335;SDS011;14047;50.936;4.654;2023-07-02T04:30:45;57.10;;;24.35;;
26335;SDS011;14047;50.936;4.654;2023-07-02T04:33:15;68.15;;;24.40;;
26335;SDS011;14047;50.936;4.654;2023-07-02T04:35:41;63.38;;;26.13;;
26335;SDS011;14047;50.936;4.654;2023-07-02T04:38:07;60.83;;;25.13;;
26335;SDS011;14047;50.936;4.654;2023-07-02T04:40:33;64.60;;;26.98;;
26335;SDS011;14047;50.936;4.654;2023-07-02T04:42:59;65.82;;;26.75;;
26335;SDS011;14047;50.936;4.654;2023-07-02T04:45:26;68.30;;;27.48;;
26335;SDS011;14047;50.936;4.654;2023-07-02T04:47:57;65.30;;;26.15;;
26335;SDS011;14047;50.936;4.654;2023-07-02T04:50:26;62.75;;;26.27;;
26335;SDS011;14047;50.936;4.654;2023-07-02T04:52:51;63.83;;;26.17;;
26335;SDS011;14047;50.936;4.654;2023-07-02T04:55:17;68.30;;;27.25;;
26335;SDS011;14047;50.936;4.654;2023-07-02T04:57:43;72.65;;;27.95;;
26335;SDS011;14047;50.936;4.654;2023-07-02T05:00:09;61.20;;;26.05;;
26335;SDS011;14047;50.936;4.654;2023-07-02T05:02:36;64.97;;;26.90;;
26335;SDS011;14047;50.936;4.654;2023-07-02T05:05:02;64.95;;;26.13;;
26335;SDS011;14047;50.936;4.654;2023-07-02T05:07:28;69.38;;;27.65;;
26335;SDS011;14047;50.936;4.654;2023-07-02T05:09:54;70.97;;;27.23;;
26335;SDS011;14047;50.936;4.654;2023-07-02T05:12:20;62.45;;;25.63;;
26335;SDS011;14047;50.936;4.654;2023-07-02T05:14:45;66.88;;;27.30;;
26335;SDS011;14047;50.936;4.654;2023-07-02T05:17:12;67.80;;;26.25;;
26335;SDS011;14047;50.936;4.654;2023-07-02T05:19:39;65.50;;;26.00;;
26335;SDS011;14047;50.936;4.654;2023-07-02T05:22:06;66.07;;;24.85;;
26335;SDS011;14047;50.936;4.654;2023-07-02T05:24:33;67.70;;;24.80;;
26335;SDS011;14047;50.936;4.654;2023-07-02T05:26:59;61.63;;;25.77;;
26335;SDS011;14047;50.936;4.654;2023-07-02T05:29:25;64.03;;;25.23;;
26335;SDS011;14047;50.936;4.654;2023-07-02T05:31:51;62.17;;;25.42;;
26335;SDS011;14047;50.936;4.654;2023-07-02T05:34:17;72.40;;;26.65;;
26335;SDS011;14047;50.936;4.654;2023-07-02T05:36:43;58.45;;;25.30;;
26335;SDS011;14047;50.936;4.654;2023-07-02T05:39:09;64.57;;;26.50;;
26335;SDS011;14047;50.936;4.654;2023-07-02T05:41:35;58.80;;;24.95;;
26335;SDS011;14047;50.936;4.654;2023-07-02T05:44:01;56.15;;;25.65;;
26335;SDS011;14047;50.936;4.654;2023-07-02T05:46:27;62.30;;;25.30;;
26335;SDS011;14047;50.936;4.654;2023-07-02T05:48:53;65.93;;;25.98;;
26335;SDS011;14047;50.936;4.654;2023-07-02T05:51:23;61.55;;;24.92;;
26335;SDS011;14047;50.936;4.654;2023-07-02T05:53:49;66.63;;;26.27;;
26335;SDS011;14047;50.936;4.654;2023-07-02T05:56:16;66.05;;;26.20;;
26335;SDS011;14047;50.936;4.654;2023-07-02T05:58:42;53.53;;;24.02;;
26335;SDS011;14047;50.936;4.654;2023-07-02T06:01:08;58.65;;;24.40;;
26335;SDS011;14047;50.936;4.654;2023-07-02T06:03:33;57.17;;;23.85;;
26335;SDS011;14047;50.936;4.654;2023-07-02T06:05:59;62.47;;;25.05;;
26335;SDS011;14047;50.936;4.654;2023-07-02T06:08:25;62.53;;;24.85;;
26335;SDS011;14047;50.936;4.654;2023-07-02T06:10:52;54.97;;;23.60;;
26335;SDS011;14047;50.936;4.654;2023-07-02T06:13:18;54.15;;;25.38;;
26335;SDS011;14047;50.936;4.654;2023-07-02T06:15:44;62.38;;;24.58;;
26335;SDS011;14047;50.936;4.654;2023-07-02T06:18:10;66.20;;;25.25;;
26335;SDS011;14047;50.936;4.654;2023-07-02T06:20:36;58.40;;;24.25;;
26335;SDS011;14047;50.936;4.654;2023-07-02T06:23:02;54.28;;;24.48;;
26335;SDS011;14047;50.936;4.654;2023-07-02T06:25:28;59.22;;;23.38;;
26335;SDS011;14047;50.936;4.654;2023-07-02T06:27:54;55.40;;;23.10;;
26335;SDS011;14047;50.936;4.654;2023-07-02T06:30:26;49.67;;;22.25;;
26335;SDS011;14047;50.936;4.654;2023-07-02T06:32:53;56.20;;;23.50;;
26335;SDS011;14047;50.936;4.654;2023-07-02T06:35:20;57.63;;;24.60;;
26335;SDS011;14047;50.936;4.654;2023-07-02T06:37:46;53.33;;;24.40;;
26335;SDS011;14047;50.936;4.654;2023-07-02T06:40:12;63.22;;;24.67;;
26335;SDS011;14047;50.936;4.654;2023-07-02T06:42:38;61.45;;;24.02;;
26335;SDS011;14047;50.936;4.654;2023-07-02T06:45:06;56.20;;;21.98;;
26335;SDS011;14047;50.936;4.654;2023-07-02T06:47:32;52.35;;;23.05;;
26335;SDS011;14047;50.936;4.654;2023-07-02T06:49:58;53.42;;;21.45;;
26335;SDS011;14047;50.936;4.654;2023-07-02T06:52:24;49.65;;;20.67;;
26335;SDS011;14047;50.936;4.654;2023-07-02T06:54:50;44.40;;;20.65;;
26335;SDS011;14047;50.936;4.654;2023-07-02T06:57:16;46.13;;;21.55;;
26335;SDS011;14047;50.936;4.654;2023-07-02T06:59:42;44.15;;;19.30;;
26335;SDS011;14047;50.936;4.654;2023-07-02T07:02:08;47.53;;;19.88;;
26335;SDS011;14047;50.936;4.654;2023-07-02T07:04:34;37.00;;;17.10;;
26335;SDS011;14047;50.936;4.654;2023-07-02T07:07:00;42.58;;;16.95;;
26335;SDS011;14047;50.936;4.654;2023-07-02T07:09:28;52.35;;;18.90;;
26335;SDS011;14047;50.936;4.654;2023-07-02T07:11:57;47.03;;;17.85;;
26335;SDS011;14047;50.936;4.654;2023-07-02T07:14:23;42.40;;;17.98;;
26335;SDS011;14047;50.936;4.654;2023-07-02T07:16:49;41.42;;;17.90;;
26335;SDS011;14047;50.936;4.654;2023-07-02T07:19:15;44.05;;;17.83;;
26335;SDS011;14047;50.936;4.654;2023-07-02T07:21:41;40.85;;;17.15;;
26335;SDS011;14047;50.936;4.654;2023-07-02T07:24:08;43.67;;;17.15;;
26335;SDS011;14047;50.936;4.654;2023-07-02T07:26:34;33.67;;;14.60;;
26335;SDS011;14047;50.936;4.654;2023-07-02T07:29:00;35.38;;;13.95;;
26335;SDS011;14047;50.936;4.654;2023-07-02T07:31:26;29.50;;;12.45;;
26335;SDS011;14047;50.936;4.654;2023-07-02T07:33:52;23.88;;;11.02;;
26335;SDS011;14047;50.936;4.654;2023-07-02T07:36:18;29.95;;;12.80;;
26335;SDS011;14047;50.936;4.654;2023-07-02T07:38:44;25.10;;;12.05;;
26335;SDS011;14047;50.936;4.654;2023-07-02T07:41:10;27.15;;;11.32;;
26335;SDS011;14047;50.936;4.654;2023-07-02T07:43:36;35.85;;;12.90;;
26335;SDS011;14047;50.936;4.654;2023-07-02T07:46:02;27.60;;;11.93;;
26335;SDS011;14047;50.936;4.654;2023-07-02T07:48:28;26.80;;;11.88;;
26335;SDS011;14047;50.936;4.654;2023-07-02T07:50:54;29.95;;;12.32;;
26335;SDS011;14047;50.936;4.654;2023-07-02T07:53:20;26.60;;;10.32;;
26335;SDS011;14047;50.936;4.654;2023-07-02T07:55:46;27.08;;;10.27;;
26335;SDS011;14047;50.936;4.654;2023-07-02T07:58:12;27.98;;;11.13;;
26335;SDS011;14047;50.936;4.654;2023-07-02T08:00:38;19.50;;;9.15;;
26335;SDS011;14047;50.936;4.654;2023-07-02T08:03:04;23.17;;;9.18;;
26335;SDS011;14047;50.936;4.654;2023-07-02T08:05:30;20.33;;;8.15;;
26335;SDS011;14047;50.936;4.654;2023-07-02T08:07:56;18.52;;;8.18;;
26335;SDS011;14047;50.936;4.654;2023-07-02T08:10:23;21.25;;;8.25;;
26335;SDS011;14047;50.936;4.654;2023-07-02T08:12:50;16.00;;;7.57;;
26335;SDS011;14047;50.936;4.654;2023-07-02T08:15:17;20.00;;;7.63;;
26335;SDS011;14047;50.936;4.654;2023-07-02T08:17:43;21.33;;;8.55;;
26335;SDS011;14047;50.936;4.654;2023-07-02T08:20:09;21.35;;;7.05;;
26335;SDS011;14047;50.936;4.654;2023-07-02T08:22:39;19.95;;;7.05;;
26335;SDS011;14047;50.936;4.654;2023-07-02T08:25:06;15.80;;;7.13;;
26335;SDS011;14047;50.936;4.654;2023-07-02T08:27:32;12.18;;;6.15;;
26335;SDS011;14047;50.936;4.654;2023-07-02T08:29:58;15.70;;;5.88;;
26335;SDS011;14047;50.936;4.654;2023-07-02T08:32:24;14.32;;;6.75;;
26335;SDS011;14047;50.936;4.654;2023-07-02T08:34:50;14.85;;;5.60;;
26335;SDS011;14047;50.936;4.654;2023-07-02T08:37:17;21.45;;;6.72;;
26335;SDS011;14047;50.936;4.654;2023-07-02T08:39:43;14.55;;;5.70;;
26335;SDS011;14047;50.936;4.654;2023-07-02T08:42:09;13.35;;;6.10;;
26335;SDS011;14047;50.936;4.654;2023-07-02T08:44:35;14.90;;;6.85;;
26335;SDS011;14047;50.936;4.654;2023-07-02T08:47:01;19.05;;;7.00;;
26335;SDS011;14047;50.936;4.654;2023-07-02T08:49:27;18.42;;;7.32;;
26335;SDS011;14047;50.936;4.654;2023-07-02T08:51:54;16.10;;;6.63;;
26335;SDS011;14047;50.936;4.654;2023-07-02T08:54:20;15.57;;;7.13;;
26335;SDS011;14047;50.936;4.654;2023-07-02T08:56:46;21.38;;;8.57;;
26335;SDS011;14047;50.936;4.654;2023-07-02T08:59:12;13.55;;;6.45;;
26335;SDS011;14047;50.936;4.654;2023-07-02T09:01:59;23.92;;;7.60;;
26335;SDS011;14047;50.936;4.654;2023-07-02T09:04:25;20.30;;;7.82;;
26335;SDS011;14047;50.936;4.654;2023-07-02T09:07:03;25.70;;;8.90;;
26335;SDS011;14047;50.936;4.654;2023-07-02T09:09:30;30.05;;;9.07;;
26335;SDS011;14047;50.936;4.654;2023-07-02T09:11:56;27.48;;;9.20;;
26335;SDS011;14047;50.936;4.654;2023-07-02T09:14:26;24.10;;;8.85;;
26335;SDS011;14047;50.936;4.654;2023-07-02T09:17:02;20.67;;;9.10;;
26335;SDS011;14047;50.936;4.654;2023-07-02T09:19:29;24.10;;;9.60;;
26335;SDS011;14047;50.936;4.654;2023-07-02T09:21:57;20.88;;;8.90;;
26335;SDS011;14047;50.936;4.654;2023-07-02T09:24:26;27.45;;;10.07;;
26335;SDS011;14047;50.936;4.654;2023-07-02T09:26:55;24.13;;;9.75;;
26335;SDS011;14047;50.936;4.654;2023-07-02T09:29:40;27.73;;;10.43;;
26335;SDS011;14047;50.936;4.654;2023-07-02T09:32:07;24.65;;;9.77;;
26335;SDS011;14047;50.936;4.654;2023-07-02T09:34:33;28.92;;;9.77;;
26335;SDS011;14047;50.936;4.654;2023-07-02T09:37:01;23.83;;;10.20;;
26335;SDS011;14047;50.936;4.654;2023-07-02T09:39:34;23.80;;;9.57;;
26335;SDS011;14047;50.936;4.654;2023-07-02T09:42:01;23.70;;;10.00;;
26335;SDS011;14047;50.936;4.654;2023-07-02T09:44:30;24.92;;;9.90;;
26335;SDS011;14047;50.936;4.654;2023-07-02T09:47:04;23.35;;;10.13;;
26335;SDS011;14047;50.936;4.654;2023-07-02T09:49:32;27.95;;;9.77;;
26335;SDS011;14047;50.936;4.654;2023-07-02T09:52:03;28.45;;;10.60;;
26335;SDS011;14047;50.936;4.654;2023-07-02T09:54:30;31.33;;;11.10;;
26335;SDS011;14047;50.936;4.654;2023-07-02T09:56:57;24.10;;;10.40;;
26335;SDS011;14047;50.936;4.654;2023-07-02T09:59:24;29.05;;;10.98;;
26335;SDS011;14047;50.936;4.654;2023-07-02T10:01:51;28.42;;;10.57;;
26335;SDS011;14047;50.936;4.654;2023-07-02T10:04:18;26.30;;;11.63;;
26335;SDS011;14047;50.936;4.654;2023-07-02T10:06:48;24.92;;;10.52;;
26335;SDS011;14047;50.936;4.654;2023-07-02T10:09:19;24.98;;;10.20;;
26335;SDS011;14047;50.936;4.654;2023-07-02T10:11:46;21.85;;;9.65;;
26335;SDS011;14047;50.936;4.654;2023-07-02T10:14:12;30.85;;;10.77;;
26335;SDS011;14047;50.936;4.654;2023-07-02T10:16:48;26.75;;;9.60;;
26335;SDS011;14047;50.936;4.654;2023-07-02T10:19:16;24.10;;;9.93;;
26335;SDS011;14047;50.936;4.654;2023-07-02T10:21:41;24.65;;;10.48;;
26335;SDS011;14047;50.936;4.654;2023-07-02T10:24:08;24.33;;;11.00;;
26335;SDS011;14047;50.936;4.654;2023-07-02T10:26:55;26.70;;;10.35;;
26335;SDS011;14047;50.936;4.654;2023-07-02T10:29:22;25.58;;;11.43;;
26335;SDS011;14047;50.936;4.654;2023-07-02T10:31:54;24.80;;;9.75;;
26335;SDS011;14047;50.936;4.654;2023-07-02T10:34:28;25.92;;;10.98;;
26335;SDS011;14047;50.936;4.654;2023-07-02T10:36:55;26.17;;;11.23;;
26335;SDS011;14047;50.936;4.654;2023-07-02T10:39:21;27.65;;;10.13;;
26335;SDS011;14047;50.936;4.654;2023-07-02T10:41:47;24.50;;;10.30;;
26335;SDS011;14047;50.936;4.654;2023-07-02T10:44:14;20.65;;;9.88;;
26335;SDS011;14047;50.936;4.654;2023-07-02T10:46:44;22.20;;;10.07;;
26335;SDS011;14047;50.936;4.654;2023-07-02T10:49:11;25.58;;;10.02;;
26335;SDS011;14047;50.936;4.654;2023-07-02T10:51:38;33.05;;;10.98;;
26335;SDS011;14047;50.936;4.654;2023-07-02T10:54:04;25.42;;;9.95;;
26335;SDS011;14047;50.936;4.654;2023-07-02T10:56:30;20.45;;;10.32;;
26335;SDS011;14047;50.936;4.654;2023-07-02T10:58:57;25.27;;;9.75;;
26335;SDS011;14047;50.936;4.654;2023-07-02T11:01:30;20.50;;;10.32;;
26335;SDS011;14047;50.936;4.654;2023-07-02T11:06:30;30.33;;;10.23;;
26335;SDS011;14047;50.936;4.654;2023-07-02T11:08:58;26.45;;;10.05;;
26335;SDS011;14047;50.936;4.654;2023-07-02T11:11:25;23.30;;;9.88;;
26335;SDS011;14047;50.936;4.654;2023-07-02T11:13:51;22.60;;;9.73;;
26335;SDS011;14047;50.936;4.654;2023-07-02T11:18:50;26.40;;;10.27;;
26335;SDS011;14047;50.936;4.654;2023-07-02T11:21:16;25.58;;;9.50;;
26335;SDS011;14047;50.936;4.654;2023-07-02T11:23:43;18.38;;;8.85;;
26335;SDS011;14047;50.936;4.654;2023-07-02T11:26:09;25.58;;;9.68;;
26335;SDS011;14047;50.936;4.654;2023-07-02T11:28:35;25.35;;;9.52;;
26335;SDS011;14047;50.936;4.654;2023-07-02T11:31:01;23.73;;;10.00;;
26335;SDS011;14047;50.936;4.654;2023-07-02T11:33:38;27.23;;;10.40;;
26335;SDS011;14047;50.936;4.654;2023-07-02T11:36:06;23.63;;;10.25;;
26335;SDS011;14047;50.936;4.654;2023-07-02T11:38:34;30.42;;;10.63;;
26335;SDS011;14047;50.936;4.654;2023-07-02T11:41:04;24.75;;;10.00;;
26335;SDS011;14047;50.936;4.654;2023-07-02T11:43:31;24.40;;;9.65;;
26335;SDS011;14047;50.936;4.654;2023-07-02T11:45:57;19.52;;;9.40;;
26335;SDS011;14047;50.936;4.654;2023-07-02T11:48:24;28.85;;;10.23;;
26335;SDS011;14047;50.936;4.654;2023-07-02T11:50:50;25.80;;;10.48;;
26335;SDS011;14047;50.936;4.654;2023-07-02T11:53:16;25.85;;;10.23;;
26335;SDS011;14047;50.936;4.654;2023-07-02T11:55:41;27.42;;;10.00;;
26335;SDS011;14047;50.936;4.654;2023-07-02T11:58:07;19.90;;;9.13;;
26335;SDS011;14047;50.936;4.654;2023-07-02T12:00:33;26.73;;;10.45;;
26335;SDS011;14047;50.936;4.654;2023-07-02T12:02:59;25.52;;;9.98;;
26335;SDS011;14047;50.936;4.654;2023-07-02T12:05:25;24.20;;;9.43;;
26335;SDS011;14047;50.936;4.654;2023-07-02T12:07:51;22.25;;;9.38;;
26335;SDS011;14047;50.936;4.654;2023-07-02T12:10:18;24.75;;;10.57;;
26335;SDS011;14047;50.936;4.654;2023-07-02T12:12:43;24.25;;;9.85;;
26335;SDS011;14047;50.936;4.654;2023-07-02T12:15:10;23.52;;;9.95;;
26335;SDS011;14047;50.936;4.654;2023-07-02T12:17:35;27.00;;;10.75;;
26335;SDS011;14047;50.936;4.654;2023-07-02T12:20:01;25.15;;;9.23;;
26335;SDS011;14047;50.936;4.654;2023-07-02T12:22:28;23.88;;;9.63;;
26335;SDS011;14047;50.936;4.654;2023-07-02T12:24:54;21.15;;;9.02;;
26335;SDS011;14047;50.936;4.654;2023-07-02T12:27:21;22.27;;;9.55;;
26335;SDS011;14047;50.936;4.654;2023-07-02T12:29:47;24.20;;;10.13;;
26335;SDS011;14047;50.936;4.654;2023-07-02T12:32:14;22.83;;;9.55;;
26335;SDS011;14047;50.936;4.654;2023-07-02T12:34:40;24.95;;;10.00;;
26335;SDS011;14047;50.936;4.654;2023-07-02T12:37:06;25.67;;;10.38;;
26335;SDS011;14047;50.936;4.654;2023-07-02T12:39:32;20.42;;;8.95;;
26335;SDS011;14047;50.936;4.654;2023-07-02T12:41:57;25.02;;;10.43;;
26335;SDS011;14047;50.936;4.654;2023-07-02T12:44:23;24.63;;;9.50;;
26335;SDS011;14047;50.936;4.654;2023-07-02T12:46:49;18.63;;;9.60;;
26335;SDS011;14047;50.936;4.654;2023-07-02T12:49:15;23.02;;;9.02;;
26335;SDS011;14047;50.936;4.654;2023-07-02T12:51:41;25.10;;;9.45;;
26335;SDS011;14047;50.936;4.654;2023-07-02T12:54:07;26.73;;;9.85;;
26335;SDS011;14047;50.936;4.654;2023-07-02T12:56:33;22.85;;;9.80;;
26335;SDS011;14047;50.936;4.654;2023-07-02T12:59:01;20.15;;;9.13;;
26335;SDS011;14047;50.936;4.654;2023-07-02T13:01:27;21.95;;;8.40;;
26335;SDS011;14047;50.936;4.654;2023-07-02T13:03:53;21.55;;;9.45;;
26335;SDS011;14047;50.936;4.654;2023-07-02T13:06:19;24.60;;;9.20;;
26335;SDS011;14047;50.936;4.654;2023-07-02T13:08:45;18.92;;;8.95;;
26335;SDS011;14047;50.936;4.654;2023-07-02T13:11:11;23.83;;;9.65;;
26335;SDS011;14047;50.936;4.654;2023-07-02T13:13:37;19.60;;;9.27;;
26335;SDS011;14047;50.936;4.654;2023-07-02T13:16:03;23.35;;;9.45;;
26335;SDS011;14047;50.936;4.654;2023-07-02T13:18:29;18.25;;;8.10;;
26335;SDS011;14047;50.936;4.654;2023-07-02T13:20:55;20.65;;;8.85;;
26335;SDS011;14047;50.936;4.654;2023-07-02T13:23:21;20.70;;;8.65;;
26335;SDS011;14047;50.936;4.654;2023-07-02T13:25:47;20.33;;;8.52;;
26335;SDS011;14047;50.936;4.654;2023-07-02T13:28:13;19.90;;;7.68;;
26335;SDS011;14047;50.936;4.654;2023-07-02T13:30:39;17.50;;;7.82;;
26335;SDS011;14047;50.936;4.654;2023-07-02T13:33:04;19.00;;;8.15;;
26335;SDS011;14047;50.936;4.654;2023-07-02T13:35:30;20.40;;;8.40;;
26335;SDS011;14047;50.936;4.654;2023-07-02T13:37:56;17.42;;;7.80;;
26335;SDS011;14047;50.936;4.654;2023-07-02T13:40:25;25.27;;;8.57;;
26335;SDS011;14047;50.936;4.654;2023-07-02T13:42:51;20.42;;;8.27;;
26335;SDS011;14047;50.936;4.654;2023-07-02T13:45:17;22.15;;;8.68;;
26335;SDS011;14047;50.936;4.654;2023-07-02T13:47:43;16.63;;;7.78;;
26335;SDS011;14047;50.936;4.654;2023-07-02T13:50:10;20.27;;;8.57;;
26335;SDS011;14047;50.936;4.654;2023-07-02T13:52:36;21.45;;;8.35;;
26335;SDS011;14047;50.936;4.654;2023-07-02T13:55:02;21.00;;;8.57;;
26335;SDS011;14047;50.936;4.654;2023-07-02T13:57:29;22.02;;;8.88;;
26335;SDS011;14047;50.936;4.654;2023-07-02T13:59:55;18.20;;;7.97;;
26335;SDS011;14047;50.936;4.654;2023-07-02T14:02:22;24.08;;;7.93;;
26335;SDS011;14047;50.936;4.654;2023-07-02T14:04:49;20.90;;;8.32;;
26335;SDS011;14047;50.936;4.654;2023-07-02T14:07:15;18.73;;;7.85;;
26335;SDS011;14047;50.936;4.654;2023-07-02T14:09:41;20.52;;;7.78;;
26335;SDS011;14047;50.936;4.654;2023-07-02T14:12:08;14.30;;;7.57;;
26335;SDS011;14047;50.936;4.654;2023-07-02T14:14:34;19.10;;;7.50;;
26335;SDS011;14047;50.936;4.654;2023-07-02T14:17:00;17.10;;;7.75;;
26335;SDS011;14047;50.936;4.654;2023-07-02T14:19:26;18.42;;;7.93;;
26335;SDS011;14047;50.936;4.654;2023-07-02T14:21:51;19.70;;;8.00;;
26335;SDS011;14047;50.936;4.654;2023-07-02T14:24:17;17.67;;;6.93;;
26335;SDS011;14047;50.936;4.654;2023-07-02T14:26:43;20.52;;;7.82;;
26335;SDS011;14047;50.936;4.654;2023-07-02T14:29:10;17.50;;;7.93;;